CSAV Lonquen — A8OT2 — position and weather

sailwx.info

Track history (hours):
 
Tides and Currents Weather Stations Pressure Air Temp Water Temp Dewpoint Dewpoint Depression Visibility Wind Speed Wind Dir Waves Ship Positions

CSAV Lonquen

Last reported at 2016-Apr-29 20:32 UTC. Time now 2016-Apr-29 21:40 UTC.
Position N 38°52' W 009°51'.

Length 261 m; draft 11.5 m.

Type: Ship (hazmat cat A). MMSI: 636091501.

Date/timePositionNaut miles runAvg speedWind from/ knotsBaromVisibWave heightAir tempDewpointWater temp
2016-Apr-29 20:32N 38°52' W 009°51'1616.2
2016-Apr-29 19:33N 38°36' W 009°49'1616.2
2016-Apr-29 18:33N 38°21' W 009°45'1615.8
2016-Apr-29 17:33N 38°05' W 009°40'1615.9
2016-Apr-29 16:33N 37°50' W 009°36'1616.1
2016-Apr-29 15:33N 37°34' W 009°31'1716.0
2016-Apr-29 14:30N 37°18' W 009°27'20115.0
2016-Apr-29 01:04N 35°58' W 005°37'815.0
2016-Apr-29 00:33N 36°00' W 005°27'1413.8
2016-Apr-28 23:33N 36°03' W 005°11'27816.2
2016-Apr-28 06:25N 36°60' E 000°28'9616.2
2016-Apr-28 00:27N 37°24' E 002°25'1516.2
2016-Apr-27 23:33N 37°28' E 002°43'1816.2
2016-Apr-27 22:27N 37°32' E 003°05'1416.2
2016-Apr-27 21:33N 37°36' E 003°22'1616.2
2016-Apr-27 20:33N 37°40' E 003°42'1616.4
2016-Apr-27 19:33N 37°45' E 004°02'1716.4
2016-Apr-27 18:33N 37°49' E 004°22'3316.4
2016-Apr-27 16:32N 37°57' E 005°03'1616.5
2016-Apr-27 15:33N 38°02' E 005°22'18116.4
2016-Apr-27 04:32N 38°47' E 009°06'1616.4
2016-Apr-27 03:33N 38°51' E 009°26'24016.6
2016-Apr-26 13:05N 40°25' E 014°13'816.1
2016-Apr-26 12:34N 40°29' E 014°23'16 0.6
2016-Apr-25 11:19N 40°36' E 014°42'1012.7
2016-Apr-25 10:33N 40°26' E 014°43'1716.6
2016-Apr-25 09:33N 40°10' E 014°45'8316.6
2016-Apr-25 04:32N 38°52' E 015°25'1716.8
2016-Apr-25 03:31N 38°36' E 015°34'1616.9
2016-Apr-25 02:33N 38°21' E 015°41'1413.8
2016-Apr-25 01:33N 38°08' E 015°37'1313.3
2016-Apr-25 00:33N 37°55' E 015°38'1716.6
2016-Apr-24 23:30N 37°45' E 015°57'1717.4
2016-Apr-24 22:33N 37°38' E 016°16'48617.1
2016-Apr-23 18:07N 34°15' E 025°21'3617.3
2016-Apr-23 16:04N 34°05' E 026°02'917.0
2016-Apr-23 15:33N 34°03' E 026°12'8917.2
2016-Apr-23 10:22N 33°37' E 027°55'1417.4
2016-Apr-23 09:33N 33°33' E 028°11'12217.2
2016-Apr-23 02:30N 32°58' E 030°30'1617.3
2016-Apr-23 01:34N 32°54' E 030°49'1817.5
2016-Apr-23 00:33N 32°48' E 031°09'1717.6
2016-Apr-22 23:33N 32°43' E 031°29'2117.6
2016-Apr-22 22:20N 32°37' E 031°54'1417.7
2016-Apr-22 21:33N 32°33' E 032°09'1817.6
2016-Apr-22 20:33N 32°28' E 032°30'1817.7
2016-Apr-22 19:34N 32°23' E 032°49'1817.7
2016-Apr-22 18:34N 32°18' E 033°10'1817.6
2016-Apr-22 17:33N 32°13' E 033°29'1817.7
2016-Apr-22 16:34N 32°08' E 033°50'1818.1
2016-Apr-22 15:34N 32°01' E 034°09'1817.5
2016-Apr-22 14:34N 31°53' E 034°28'10 9.5
2016-Apr-22 13:31N 31°50' E 034°39'0 0.0
2016-Apr-22 12:31N 31°50' E 034°39'0 0.0
2016-Apr-22 11:25N 31°50' E 034°39'0 0.0
2016-Apr-22 10:31N 31°50' E 034°39'0 0.0
2016-Apr-22 09:31N 31°50' E 034°39'0 0.0
2016-Apr-22 08:31N 31°50' E 034°39'0 0.0
2016-Apr-22 07:28N 31°50' E 034°39'0 0.0
2016-Apr-22 05:31N 31°50' E 034°39'0 0.0
2016-Apr-22 04:31N 31°50' E 034°39'0 0.0
2016-Apr-22 03:31N 31°50' E 034°39'0 0.0
2016-Apr-22 02:31N 31°50' E 034°39'0 0.0
2016-Apr-22 01:31N 31°50' E 034°39'0 0.0
2016-Apr-22 00:31N 31°50' E 034°39'0 0.0
2016-Apr-21 23:31N 31°50' E 034°39'0 0.0
2016-Apr-21 22:31N 31°50' E 034°39'0 0.0
2016-Apr-21 21:28N 31°50' E 034°39'0 0.0
2016-Apr-21 20:31N 31°50' E 034°39'0 0.0
2016-Apr-21 18:31N 31°50' E 034°39'0 0.0
2016-Apr-21 14:25N 31°50' E 034°39'0 0.0
2016-Apr-21 12:31N 31°50' E 034°39'0 0.0
2016-Apr-21 11:31N 31°50' E 034°39'0 0.0
2016-Apr-21 10:31N 31°50' E 034°39'0 0.0
2016-Apr-21 09:31N 31°50' E 034°39'0 0.0
2016-Apr-21 08:31N 31°50' E 034°39'0 0.0
2016-Apr-21 07:31N 31°50' E 034°39'0 0.0
2016-Apr-21 06:31N 31°50' E 034°39'0 0.0
2016-Apr-21 04:31N 31°50' E 034°39'0 0.0
2016-Apr-21 03:25N 31°50' E 034°39'0 0.3
2016-Apr-21 02:33N 31°50' E 034°38'5 4.8
2016-Apr-21 01:33N 31°52' E 034°33'1515.5
2016-Apr-21 00:33N 31°57' E 034°16'1616.0
2016-Apr-20 23:34N 32°03' E 033°59'1615.9
2016-Apr-20 22:33N 32°05' E 033°40'1616.1
2016-Apr-20 21:33N 32°03' E 033°21'1716.5
2016-Apr-20 20:33N 32°00' E 033°02'1615.9
2016-Apr-20 19:33N 31°55' E 032°44'1818.5
2016-Apr-20 18:33N 31°49' E 032°24'2120.7
2016-Apr-20 17:31N 31°45' E 031°59'2020.6
2016-Apr-20 16:34N 31°45' E 031°36'2120.6
2016-Apr-20 15:33N 31°45' E 031°11'2120.7
2016-Apr-20 14:33N 31°43' E 030°47'  
Track history (hours):
 
Tides and Currents Weather Stations Pressure Air Temp Water Temp Dewpoint Dewpoint Depression Visibility Wind Speed Wind Dir Waves Ship Positions

CSAV Lonquen

Last reported at 2016-Apr-29 20:32 UTC. Time now 2016-Apr-29 21:40 UTC.
Position N 38°52' W 009°51'.

Length 261 m; draft 11.5 m.

Type: Ship (hazmat cat A). MMSI: 636091501.

Date/timePositionNaut miles runAvg speedWind from/ knotsBaromVisibWave heightAir tempDewpointWater temp
2016-Apr-29 20:32N 38°52' W 009°51'1616.2
2016-Apr-29 19:33N 38°36' W 009°49'1616.2
2016-Apr-29 18:33N 38°21' W 009°45'1615.8
2016-Apr-29 17:33N 38°05' W 009°40'1615.9
2016-Apr-29 16:33N 37°50' W 009°36'1616.1
2016-Apr-29 15:33N 37°34' W 009°31'1716.0
2016-Apr-29 14:30N 37°18' W 009°27'20115.0
2016-Apr-29 01:04N 35°58' W 005°37'815.0
2016-Apr-29 00:33N 36°00' W 005°27'1413.8
2016-Apr-28 23:33N 36°03' W 005°11'27816.2
2016-Apr-28 06:25N 36°60' E 000°28'9616.2
2016-Apr-28 00:27N 37°24' E 002°25'1516.2
2016-Apr-27 23:33N 37°28' E 002°43'1816.2
2016-Apr-27 22:27N 37°32' E 003°05'1416.2
2016-Apr-27 21:33N 37°36' E 003°22'1616.2
2016-Apr-27 20:33N 37°40' E 003°42'1616.4
2016-Apr-27 19:33N 37°45' E 004°02'1716.4
2016-Apr-27 18:33N 37°49' E 004°22'3316.4
2016-Apr-27 16:32N 37°57' E 005°03'1616.5
2016-Apr-27 15:33N 38°02' E 005°22'18116.4
2016-Apr-27 04:32N 38°47' E 009°06'1616.4
2016-Apr-27 03:33N 38°51' E 009°26'24016.6
2016-Apr-26 13:05N 40°25' E 014°13'816.1
2016-Apr-26 12:34N 40°29' E 014°23'16 0.6
2016-Apr-25 11:19N 40°36' E 014°42'1012.7
2016-Apr-25 10:33N 40°26' E 014°43'1716.6
2016-Apr-25 09:33N 40°10' E 014°45'8316.6
2016-Apr-25 04:32N 38°52' E 015°25'1716.8
2016-Apr-25 03:31N 38°36' E 015°34'1616.9
2016-Apr-25 02:33N 38°21' E 015°41'1413.8
2016-Apr-25 01:33N 38°08' E 015°37'1313.3
2016-Apr-25 00:33N 37°55' E 015°38'1716.6
2016-Apr-24 23:30N 37°45' E 015°57'1717.4
2016-Apr-24 22:33N 37°38' E 016°16'48617.1
2016-Apr-23 18:07N 34°15' E 025°21'3617.3
2016-Apr-23 16:04N 34°05' E 026°02'917.0
2016-Apr-23 15:33N 34°03' E 026°12'8917.2
2016-Apr-23 10:22N 33°37' E 027°55'1417.4
2016-Apr-23 09:33N 33°33' E 028°11'12217.2
2016-Apr-23 02:30N 32°58' E 030°30'1617.3
2016-Apr-23 01:34N 32°54' E 030°49'1817.5
2016-Apr-23 00:33N 32°48' E 031°09'1717.6
2016-Apr-22 23:33N 32°43' E 031°29'2117.6
2016-Apr-22 22:20N 32°37' E 031°54'1417.7
2016-Apr-22 21:33N 32°33' E 032°09'1817.6
2016-Apr-22 20:33N 32°28' E 032°30'1817.7
2016-Apr-22 19:34N 32°23' E 032°49'1817.7
2016-Apr-22 18:34N 32°18' E 033°10'1817.6
2016-Apr-22 17:33N 32°13' E 033°29'1817.7
2016-Apr-22 16:34N 32°08' E 033°50'1818.1
2016-Apr-22 15:34N 32°01' E 034°09'1817.5
2016-Apr-22 14:34N 31°53' E 034°28'10 9.5
2016-Apr-22 13:31N 31°50' E 034°39'0 0.0
2016-Apr-22 12:31N 31°50' E 034°39'0 0.0
2016-Apr-22 11:25N 31°50' E 034°39'0 0.0
2016-Apr-22 10:31N 31°50' E 034°39'0 0.0
2016-Apr-22 09:31N 31°50' E 034°39'0 0.0
2016-Apr-22 08:31N 31°50' E 034°39'0 0.0
2016-Apr-22 07:28N 31°50' E 034°39'0 0.0
2016-Apr-22 05:31N 31°50' E 034°39'0 0.0
2016-Apr-22 04:31N 31°50' E 034°39'0 0.0
2016-Apr-22 03:31N 31°50' E 034°39'0 0.0
2016-Apr-22 02:31N 31°50' E 034°39'0 0.0
2016-Apr-22 01:31N 31°50' E 034°39'0 0.0
2016-Apr-22 00:31N 31°50' E 034°39'0 0.0
2016-Apr-21 23:31N 31°50' E 034°39'0 0.0
2016-Apr-21 22:31N 31°50' E 034°39'0 0.0
2016-Apr-21 21:28N 31°50' E 034°39'0 0.0
2016-Apr-21 20:31N 31°50' E 034°39'0 0.0
2016-Apr-21 18:31N 31°50' E 034°39'0 0.0
2016-Apr-21 14:25N 31°50' E 034°39'0 0.0
2016-Apr-21 12:31N 31°50' E 034°39'0 0.0
2016-Apr-21 11:31N 31°50' E 034°39'0 0.0
2016-Apr-21 10:31N 31°50' E 034°39'0 0.0
2016-Apr-21 09:31N 31°50' E 034°39'0 0.0
2016-Apr-21 08:31N 31°50' E 034°39'0 0.0
2016-Apr-21 07:31N 31°50' E 034°39'0 0.0
2016-Apr-21 06:31N 31°50' E 034°39'0 0.0
2016-Apr-21 04:31N 31°50' E 034°39'0 0.0
2016-Apr-21 03:25N 31°50' E 034°39'0 0.3
2016-Apr-21 02:33N 31°50' E 034°38'5 4.8
2016-Apr-21 01:33N 31°52' E 034°33'1515.5
2016-Apr-21 00:33N 31°57' E 034°16'1616.0
2016-Apr-20 23:34N 32°03' E 033°59'1615.9
2016-Apr-20 22:33N 32°05' E 033°40'1616.1
2016-Apr-20 21:33N 32°03' E 033°21'1716.5
2016-Apr-20 20:33N 32°00' E 033°02'1615.9
2016-Apr-20 19:33N 31°55' E 032°44'1818.5
2016-Apr-20 18:33N 31°49' E 032°24'2120.7
2016-Apr-20 17:31N 31°45' E 031°59'2020.6
2016-Apr-20 16:34N 31°45' E 031°36'2120.6
2016-Apr-20 15:33N 31°45' E 031°11'2120.7
2016-Apr-20 14:33N 31°43' E 030°47'  

Dump ship's entire track history